Monday, September 22, 2014
10:19 UTC
  |  Log In   |  Register Free
Airport Search:

Tucson International Airport
(KTUS)

FAA data valid effective September 18, 2014 - November 13, 2014 (unless otherwise noted).

 
 
 
 
 
 
 
 
 
 
 
 
 
 

Current Aviation Weather for Tucson International Airport (KTUS)

The most recent METAR observation for KTUS was updated at: 1018
METAR Summary (Translated METAR)
KTUS
220953Z 12010KT 10SM FEW110 25/18 A3004 RMK AO2 SLP123 T02500178
KDMA
220958Z AUTO 13012KT 10SM BKN110 24/17 A3003 RMK AO2 SLP123 T02380173 $
(4.2 nm NE from KTUS)
KRYN
220256Z 00000KT 10SM SCT080 31/14 A2999
(12 nm NW from KTUS)
TAF Summary (Translated TAF)
KTUS
220520Z 2206/2306 14006KT P6SM SCT120 FM222000 30008KT P6SM SCT080 BKN120 FM230300 04006KT P6SM SCT120
KDMA
(4.2 nm NE from KTUS)
2205/2311 VRB06KT 9999 SCT090 QNH3000INS TEMPO 2205/2206 14012G18KT BECMG 2218/2219 34009KT 9999 SCT100 QNH2992INS TEMPO 2221/2302 VRB12G18KT 9999 VCTS BKN060CB BECMG 2302/2303 VRB06KT 9999 SCT200 QNH3002INS TX33/2223Z TN20/2213Z
  Airport Weather Conditions for KTUS

 Current Weather at TUS
79° F
Fair
Southeast winds at 15.0 mph
TUS NOAA Radar

Pressure: 30.04 in
Humidity: 56%
Wind: Southeast at 15.0 MPH (13 KT)
Dew Point: 62.1°F
Visibility: 10.00 mi


Airport Weather Forecast for KTUS

Translated METAR and TAF for KTUS
Translated METAR for KTUS (1013 UTC 22 September 2014)
found at http://aviationweather.gov/adds/metars/
 
METAR text: KTUS 220953Z 12010KT 10SM FEW110 25/18 A3004 RMK AO2 SLP123 T02500178
Conditions at: KTUS (TUCSON , AZ, US) observed 0953 UTC 22 September 2014
Temperature: 25.0°C (77°F)
Dewpoint: 17.8°C (64°F) [RH = 64%]
Pressure (altimeter): 30.04 inches Hg (1017.4 mb)
[Sea-level pressure: 1012.3 mb]
Winds: from the ESE (120 degrees) at 12 MPH (10 knots; 5.2 m/s)
Visibility: 10 or more miles (16+ km)
Ceiling: at least 12,000 feet AGL
Clouds: few clouds at 11000 feet AGL
Weather: no significant weather observed at this time
Translated TAF for KTUS
Forecast for: KTUS (TUCSON , AZ, US)
TAF Text: KTUS 220520Z 2206/2306 14006KT P6SM SCT120
Forecast period: 0600 to 2000 UTC 22 September 2014
Forecast type: FROM: standard forecast or significant change
Winds: from the SE (140 degrees) at 7 MPH (6 knots; 3.1 m/s)
Visibility: 6 or more miles (10+ km)
Clouds: scattered clouds at 12000 feet AGL
Weather: no significant weather forecast for this period
TAF Text: FM222000 30008KT P6SM SCT080 BKN120
Forecast period: 2000 UTC 22 September 2014 to 0300 UTC 23 September 2014
Forecast type: FROM: standard forecast or significant change
Winds: from the WNW (300 degrees) at 9 MPH (8 knots; 4.2 m/s)
Visibility: 6 or more miles (10+ km)
Ceiling: 12000 feet AGL
Clouds: scattered clouds at 8000 feet AGL
broken clouds at 12000 feet AGL
Weather: no significant weather forecast for this period
TAF Text: FM230300 04006KT P6SM SCT120
Forecast period: 0300 to 0600 UTC 23 September 2014
Forecast type: FROM: standard forecast or significant change
Winds: from the NE (40 degrees) at 7 MPH (6 knots; 3.1 m/s)
Visibility: 6 or more miles (10+ km)
Clouds: scattered clouds at 12000 feet AGL
Weather: no significant weather forecast for this period

Find All Airport Services Find A Hotel Find A Rental Car Find A Golf Course Find A Restaurant $100 Hamburger



FBO's on the Field
FBO Company Facility Photos Services Transportation Aviation Fuel Prices: Prices include tax
Catering Weather Repair Courtesy Rental Type 100LL JetA JetA+ MOGAS 8087
 
Bombardier Aerospace

Bombardier Aerospace logo
This FBO has not yet been rated
FS:
Last Updated: Sep-08
Login to update fuel prices
SS:
Contact Bombardier AerospaceMore FBO Information
 
Atlantic Aviation

Currently rated 4.6 by 2 people
FS:Texaco
Last Updated: Sep-19
Login to update fuel prices
SS:
Contact Atlantic AviationMore FBO Information
 
Million Air

This FBO has not yet been rated
FS:Independent
Last Updated: Aug-26
Login to update fuel prices
SS:
Contact Million AirMore FBO Information
 
Million Air Tucson

Currently rated 2.2 by 3 people
FS:Independent
Last Updated: Aug-14
Login to update fuel prices
SS:
Contact Million Air TucsonMore FBO Information
 
Tucson Jet Center

Currently rated 4.4 by 3 people
FS:Independent
Last Updated: Aug-21
Login to update fuel prices
SS:
Contact Tucson Jet CenterMore FBO Information
 
Velocity Air Inc.

This FBO has not yet been rated
FS:Ascent
Last Updated: Sep-19
Login to update fuel prices
SS:
Contact Velocity Air Inc.More FBO Information
 
Add another FBO Facility Photos Catering Weather Repair Courtesy Rental Type 100LL JetA JetA+ MOGAS 8087
Services Transportation Aviation Fuel Prices: Prices include tax


model-print
model-print
model-print
model-print